Terminal Aerodrome Forecast
Issued by NWS Cleveland, OH

Home | Current Version | Previous Version | Text Only | Print | Product List | Glossary Off
Versions: 1 2 3 4 5 6 7 8 9 10 11 12 13 14 15 16 17 18 19 20 21

844
FTUS41 KCLE 240522
TAFCLE
TAF
KCLE 240522Z 2406/2512 26008KT P6SM SCT040
     FM240900 25008KT P6SM FEW250
     FM241600 27012G22KT P6SM BKN045
     FM242300 26008KT P6SM SCT045
     FM251000 24006KT P6SM SKC=

USA.gov is the U.S. government's official web portal to all federal, state and local government web resources and services.